createdAt,value
2023-07-29T00:01:40.721Z,18.9
2023-07-29T00:11:40.901Z,18.7
2023-07-29T00:21:41.109Z,18.7
2023-07-29T00:31:41.340Z,18.7
2023-07-29T00:41:41.493Z,18.6
2023-07-29T00:51:41.706Z,18.5
2023-07-29T01:11:42.138Z,18.4
2023-07-29T01:21:42.284Z,18.4
2023-07-29T01:31:42.510Z,18.5
2023-07-29T01:41:42.680Z,18.5
2023-07-29T01:51:42.897Z,18.7
2023-07-29T02:01:43.195Z,18.8
2023-07-29T02:11:43.272Z,18.9
2023-07-29T02:21:43.469Z,18.9
2023-07-29T02:31:43.671Z,19
2023-07-29T02:41:43.909Z,19
2023-07-29T02:51:44.060Z,19
2023-07-29T03:01:44.266Z,19
2023-07-29T03:11:44.455Z,19
2023-07-29T03:21:44.656Z,19
2023-07-29T03:31:44.839Z,19.1
2023-07-29T03:41:45.100Z,19.1
2023-07-29T04:01:45.452Z,19
2023-07-29T04:11:45.659Z,18.9
2023-07-29T04:21:45.893Z,18.6
2023-07-29T04:31:46.146Z,18.4
2023-07-29T04:41:46.248Z,18.3
2023-07-29T04:51:46.489Z,18.3
2023-07-29T05:01:46.710Z,18.2
2023-07-29T05:11:46.901Z,18.2
2023-07-29T05:21:47.094Z,18.2
2023-07-29T05:31:47.213Z,18.2
2023-07-29T05:41:47.473Z,18.2
2023-07-29T05:51:47.608Z,18.1
2023-07-29T06:01:47.812Z,18.1
2023-07-29T06:11:48.045Z,18
2023-07-29T06:21:48.195Z,17.9
2023-07-29T06:31:48.424Z,17.9
2023-07-29T06:51:48.824Z,18.1
2023-07-29T07:01:49.069Z,18.1
2023-07-29T07:11:49.238Z,18.8
2023-07-29T07:31:49.642Z,19.4
2023-07-29T07:41:49.795Z,19.5
2023-07-29T08:01:50.189Z,20
2023-07-29T08:11:50.400Z,20.5
2023-07-29T08:21:50.576Z,20.4
2023-07-29T08:31:50.783Z,20.5
2023-07-29T08:41:50.990Z,20.9
2023-07-29T09:01:51.458Z,21.4
2023-07-29T09:11:51.602Z,21.6
2023-07-29T09:21:51.767Z,21.8
2023-07-29T09:31:51.957Z,21.6
2023-07-29T09:41:52.146Z,21.6
2023-07-29T09:51:52.344Z,21.4
2023-07-29T10:01:52.572Z,21.5
2023-07-29T10:11:52.776Z,22
2023-07-29T10:21:52.922Z,22
2023-07-29T10:31:53.164Z,22.5
2023-07-29T10:51:54.656Z,22.7
2023-07-29T11:11:53.919Z,23.2
2023-07-29T11:21:54.149Z,22.8
2023-07-29T11:31:54.294Z,22.4
2023-07-29T11:41:54.490Z,22.3
2023-07-29T11:51:54.708Z,22.7
2023-07-29T12:01:54.886Z,23.2
2023-07-29T12:11:55.095Z,23.7
2023-07-29T12:21:55.278Z,23.2
2023-07-29T12:31:55.496Z,23.6
2023-07-29T12:41:55.676Z,23.1
2023-07-29T12:51:55.862Z,23.5
2023-07-29T13:01:56.141Z,23.3
2023-07-29T13:11:56.287Z,23.3
2023-07-29T13:31:56.733Z,22.6
2023-07-29T13:41:56.892Z,22.1
2023-07-29T13:51:57.089Z,21.2
2023-07-29T14:01:57.283Z,19.6
2023-07-29T14:11:57.447Z,17.6
2023-07-29T14:21:57.639Z,16.7
2023-07-29T14:31:57.835Z,16.5
2023-07-29T14:41:58.037Z,16.4
2023-07-29T14:51:58.232Z,17.9
2023-07-29T15:01:58.462Z,19
2023-07-29T15:11:59.503Z,20
2023-07-29T15:21:58.850Z,20.8
2023-07-29T15:31:59.026Z,21.3
2023-07-29T15:41:59.216Z,21.5
2023-07-29T15:51:59.404Z,21
2023-07-29T16:01:59.631Z,21.4
2023-07-29T16:11:59.804Z,21.2
2023-07-29T16:32:00.223Z,21.3
2023-07-29T16:42:04.711Z,20.8
2023-07-29T16:52:00.588Z,20.7
2023-07-29T17:02:00.782Z,20.8
2023-07-29T17:12:01.010Z,20.8
2023-07-29T17:22:01.224Z,20.5
2023-07-29T17:32:01.395Z,20.4
2023-07-29T17:42:01.604Z,20.5
2023-07-29T17:52:01.764Z,20.5
2023-07-29T18:02:02.005Z,20.3
2023-07-29T18:12:02.198Z,20.1
2023-07-29T18:22:02.351Z,20
2023-07-29T18:32:02.624Z,19.9
2023-07-29T18:52:02.987Z,19.3
2023-07-29T19:02:03.173Z,19.3
2023-07-29T19:12:03.349Z,19.3
2023-07-29T19:22:03.591Z,19
2023-07-29T19:32:03.787Z,18.7
2023-07-29T19:42:04.014Z,18.5
2023-07-29T19:52:04.130Z,18.4
2023-07-29T20:02:04.319Z,18.4
2023-07-29T20:12:04.599Z,18.5
2023-07-29T20:22:04.738Z,18.2
2023-07-29T20:32:04.941Z,17.9
2023-07-29T20:42:05.111Z,17.8
2023-07-29T20:52:05.320Z,17.9
2023-07-29T21:02:05.552Z,17.8
2023-07-29T21:12:05.738Z,17.8
2023-07-29T21:22:05.914Z,17.8
2023-07-29T21:32:06.119Z,17.6
2023-07-29T21:42:06.303Z,17.4
2023-07-29T21:52:06.493Z,17.1
2023-07-29T22:02:06.688Z,17
2023-07-29T22:12:06.888Z,16.9
2023-07-29T22:22:07.108Z,16.7
2023-07-29T22:32:07.336Z,16.6
2023-07-29T22:42:07.481Z,16.6
2023-07-29T22:52:07.704Z,16.5
2023-07-29T23:02:07.869Z,16.3
2023-07-29T23:12:08.076Z,16.2
2023-07-29T23:22:08.324Z,16.3
2023-07-29T23:32:08.479Z,16.3
2023-07-29T23:42:08.728Z,16.3
2023-07-29T23:52:08.867Z,16.2
